createdAt,value
2023-04-23T00:00:55.853Z,8.8
2023-04-23T00:01:55.856Z,8.5
2023-04-23T00:02:55.965Z,8.6
2023-04-23T00:03:56.041Z,9.4
2023-04-23T00:04:55.924Z,8.1
2023-04-23T00:05:55.970Z,8.2
2023-04-23T00:06:55.921Z,9.3
2023-04-23T00:07:55.831Z,8.9
2023-04-23T00:08:55.857Z,8.2
2023-04-23T00:09:55.810Z,8.6
2023-04-23T00:10:56.126Z,8.6
2023-04-23T00:11:55.882Z,8.9
2023-04-23T00:12:58.014Z,8.6
2023-04-23T00:13:55.907Z,8.6
2023-04-23T00:14:55.890Z,8.5
2023-04-23T00:15:55.930Z,9.5
2023-04-23T00:16:55.844Z,9.4
2023-04-23T00:17:56.118Z,9.0
2023-04-23T00:18:55.925Z,9.6
2023-04-23T00:19:55.967Z,9.0
2023-04-23T00:20:55.948Z,9.5
2023-04-23T00:21:55.872Z,9.4
2023-04-23T00:22:55.999Z,9.0
2023-04-23T00:23:55.908Z,9.7
2023-04-23T00:24:55.880Z,8.6
2023-04-23T00:25:55.836Z,8.2
2023-04-23T00:26:55.891Z,9.9
2023-04-23T00:27:56.114Z,10.2
2023-04-23T00:28:55.772Z,9.6
2023-04-23T00:29:55.783Z,10.0
2023-04-23T00:30:55.769Z,9.1
2023-04-23T00:31:55.922Z,9.6
2023-04-23T00:32:55.973Z,9.5
2023-04-23T00:33:55.811Z,10.5
2023-04-23T00:34:55.745Z,9.5
2023-04-23T00:35:55.788Z,9.7
2023-04-23T00:36:55.742Z,9.9
2023-04-23T00:37:55.750Z,9.6
2023-04-23T00:38:56.144Z,8.5
2023-04-23T00:39:55.754Z,9.4
2023-04-23T00:40:55.815Z,9.0
2023-04-23T00:41:55.796Z,9.5
2023-04-23T00:42:55.802Z,8.9
2023-04-23T00:43:55.846Z,10.0
2023-04-23T00:44:55.953Z,10.5
2023-04-23T00:45:55.926Z,11.5
2023-04-23T00:46:55.755Z,13.2
2023-04-23T00:47:55.747Z,12.5
2023-04-23T00:48:55.803Z,12.2
2023-04-23T00:49:55.944Z,12.3
2023-04-23T00:50:55.695Z,10.8
2023-04-23T00:51:55.722Z,10.3
2023-04-23T00:52:55.765Z,10.5
2023-04-23T00:53:55.780Z,9.6
2023-04-23T00:54:55.710Z,10.8
2023-04-23T00:55:55.782Z,10.0
2023-04-23T00:56:55.846Z,9.3
2023-04-23T00:57:55.692Z,9.5
2023-04-23T00:58:55.716Z,9.7
2023-04-23T00:59:55.789Z,10.3
2023-04-23T01:00:55.917Z,10.0
2023-04-23T01:01:55.717Z,11.1
2023-04-23T01:02:56.016Z,11.7
2023-04-23T01:03:56.049Z,11.8
2023-04-23T01:04:55.757Z,12.1
2023-04-23T01:05:55.710Z,12.3
2023-04-23T01:06:55.763Z,12.8
2023-04-23T01:07:55.747Z,12.7
2023-04-23T01:08:55.731Z,12.1
2023-04-23T01:09:55.868Z,12.3
2023-04-23T01:10:55.738Z,13.2
2023-04-23T01:11:55.828Z,13.2
2023-04-23T01:12:55.745Z,11.8
2023-04-23T01:13:55.818Z,12.1
2023-04-23T01:14:55.740Z,12.6
2023-04-23T01:15:55.727Z,12.9
2023-04-23T01:16:55.747Z,12.1
2023-04-23T01:17:55.712Z,13.3
2023-04-23T01:18:55.755Z,13.2
2023-04-23T01:19:55.729Z,13.1
2023-04-23T01:20:55.747Z,13.2
2023-04-23T01:21:55.693Z,12.1
2023-04-23T01:22:55.862Z,14.4
2023-04-23T01:23:55.715Z,13.9
2023-04-23T01:24:59.889Z,13.8
2023-04-23T01:26:00.179Z,13.8
2023-04-23T01:26:55.702Z,13.7
2023-04-23T01:27:55.759Z,12.9
2023-04-23T01:28:55.688Z,14.6
2023-04-23T01:29:55.684Z,13.4
2023-04-23T01:30:55.790Z,11.9
2023-04-23T01:31:55.679Z,13.2
2023-04-23T01:32:55.745Z,12.9
2023-04-23T01:33:55.787Z,14.0
2023-04-23T01:34:55.799Z,14.0
2023-04-23T01:35:55.706Z,14.0
2023-04-23T01:36:55.656Z,13.0
2023-04-23T01:37:55.659Z,13.6
2023-04-23T01:38:55.725Z,12.9
2023-04-23T01:39:55.729Z,13.6
2023-04-23T01:40:55.632Z,13.9
2023-04-23T01:41:55.681Z,15.1
2023-04-23T01:42:55.631Z,15.1
2023-04-23T01:43:55.632Z,15.2
2023-04-23T01:44:55.654Z,16.3
2023-04-23T01:45:55.699Z,15.3
2023-04-23T01:46:55.704Z,16.3
2023-04-23T01:47:55.777Z,15.3
2023-04-23T01:48:55.638Z,15.7
2023-04-23T01:49:55.692Z,15.9
2023-04-23T01:50:55.615Z,15.7
2023-04-23T01:51:55.622Z,15.8
2023-04-23T01:52:55.697Z,15.7
2023-04-23T01:53:55.627Z,15.1
2023-04-23T01:54:55.651Z,15.5
2023-04-23T01:55:55.822Z,14.4
2023-04-23T01:56:55.606Z,12.6
2023-04-23T01:57:55.661Z,13.4
2023-04-23T01:58:55.648Z,13.9
2023-04-23T01:59:55.583Z,14.2
2023-04-23T02:00:55.596Z,14.6
2023-04-23T02:01:55.649Z,13.6
2023-04-23T02:02:55.759Z,12.8
2023-04-23T02:03:55.716Z,12.8
2023-04-23T02:04:55.597Z,13.7
2023-04-23T02:05:56.724Z,12.4
2023-04-23T02:06:55.678Z,13.5
2023-04-23T02:07:55.626Z,13.6
2023-04-23T02:08:55.603Z,12.7
2023-04-23T02:09:55.594Z,12.9
2023-04-23T02:10:55.629Z,13.0
2023-04-23T02:11:55.601Z,13.6
2023-04-23T02:12:55.611Z,14.3
2023-04-23T02:13:55.638Z,13.3
2023-04-23T02:14:55.608Z,13.2
2023-04-23T02:15:55.700Z,13.5
2023-04-23T02:16:55.623Z,12.7
2023-04-23T02:17:55.704Z,12.0
2023-04-23T02:18:55.597Z,13.1
2023-04-23T02:19:56.938Z,14.3
2023-04-23T02:20:55.689Z,13.1
2023-04-23T02:21:55.716Z,13.5
2023-04-23T02:22:55.573Z,13.1
2023-04-23T02:23:55.557Z,13.7
2023-04-23T02:24:55.568Z,13.5
2023-04-23T02:25:55.642Z,13.4
2023-04-23T02:26:55.642Z,13.4
2023-04-23T02:27:55.622Z,13.9
2023-04-23T02:28:55.683Z,13.7
2023-04-23T02:29:55.647Z,14.0
2023-04-23T02:30:55.595Z,14.3
2023-04-23T02:31:55.724Z,11.9
2023-04-23T02:32:56.767Z,12.6
2023-04-23T02:33:55.566Z,13.6
2023-04-23T02:34:55.635Z,12.7
2023-04-23T02:35:55.595Z,12.1
2023-04-23T02:36:55.616Z,13.5
2023-04-23T02:37:55.529Z,13.0
2023-04-23T02:38:55.542Z,13.9
2023-04-23T02:39:55.880Z,12.8
2023-04-23T02:40:55.581Z,13.1
2023-04-23T02:41:55.562Z,13.3
2023-04-23T02:42:55.611Z,12.3
2023-04-23T02:43:55.601Z,13.7
2023-04-23T02:44:55.540Z,13.4
2023-04-23T02:45:55.545Z,12.9
2023-04-23T02:46:55.642Z,12.4
2023-04-23T02:47:55.726Z,12.2
2023-04-23T02:48:55.592Z,12.1
2023-04-23T02:49:55.543Z,12.2
2023-04-23T02:50:55.528Z,13.5
2023-04-23T02:51:55.652Z,12.5
2023-04-23T02:52:55.590Z,12.4
2023-04-23T02:53:55.560Z,12.4
2023-04-23T02:54:55.539Z,12.8
2023-04-23T02:55:55.540Z,12.9
2023-04-23T02:56:55.543Z,12.7
2023-04-23T02:57:55.598Z,12.6
2023-04-23T02:58:55.525Z,12.2
2023-04-23T02:59:56.952Z,13.4
2023-04-23T03:00:55.769Z,12.2
2023-04-23T03:01:55.541Z,12.8
2023-04-23T03:02:55.842Z,12.5
2023-04-23T03:03:55.628Z,12.8
2023-04-23T03:04:55.555Z,12.8
2023-04-23T03:05:55.566Z,12.5
2023-04-23T03:06:55.518Z,12.9
2023-04-23T03:07:55.480Z,12.3
2023-04-23T03:08:55.637Z,12.8
2023-04-23T03:09:55.555Z,12.3
2023-04-23T03:10:55.520Z,12.5
2023-04-23T03:11:55.672Z,13.4
2023-04-23T03:12:55.535Z,11.8
2023-04-23T03:13:55.528Z,12.5
2023-04-23T03:14:55.571Z,11.5
2023-04-23T03:15:55.706Z,12.8
2023-04-23T03:16:55.565Z,12.5
2023-04-23T03:17:55.523Z,13.4
2023-04-23T03:18:55.540Z,13.3
2023-04-23T03:19:55.465Z,12.6
2023-04-23T03:20:55.528Z,12.3
2023-04-23T03:21:55.474Z,13.1
2023-04-23T03:22:55.637Z,12.8
2023-04-23T03:23:55.544Z,13.7
2023-04-23T03:24:56.722Z,13.7
2023-04-23T03:25:55.530Z,13.0
2023-04-23T03:26:55.489Z,12.7
2023-04-23T03:27:55.449Z,12.8
2023-04-23T03:28:55.522Z,13.2
2023-04-23T03:29:55.578Z,12.8
2023-04-23T03:30:55.480Z,13.8
2023-04-23T03:31:55.489Z,13.5
2023-04-23T03:32:55.469Z,12.6
2023-04-23T03:33:55.756Z,13.3
2023-04-23T03:34:55.556Z,14.3
2023-04-23T03:35:55.448Z,13.7
2023-04-23T03:36:55.478Z,14.3
2023-04-23T03:37:55.503Z,12.9
2023-04-23T03:38:55.514Z,13.4
2023-04-23T03:39:55.439Z,13.0
2023-04-23T03:40:55.455Z,14.2
2023-04-23T03:41:55.479Z,13.2
2023-04-23T03:42:55.564Z,13.6
2023-04-23T03:43:55.506Z,13.5
2023-04-23T03:44:55.466Z,13.1
2023-04-23T03:45:55.500Z,14.6
2023-04-23T03:46:55.475Z,13.6
2023-04-23T03:47:55.572Z,13.0
2023-04-23T03:48:55.493Z,14.1
2023-04-23T03:49:55.477Z,13.4
2023-04-23T03:50:55.422Z,14.0
2023-04-23T03:51:55.575Z,14.9
2023-04-23T03:52:55.469Z,13.8
2023-04-23T03:53:55.465Z,13.6
2023-04-23T03:54:55.427Z,15.3
2023-04-23T03:55:55.636Z,13.7
2023-04-23T03:56:55.450Z,15.0
2023-04-23T03:57:55.428Z,14.4
2023-04-23T03:58:55.474Z,13.9
2023-04-23T03:59:55.424Z,13.9
2023-04-23T04:00:55.446Z,14.1
2023-04-23T04:01:55.434Z,14.8
2023-04-23T04:02:55.569Z,14.2
2023-04-23T04:03:55.616Z,14.5
2023-04-23T04:04:55.628Z,14.1
2023-04-23T04:05:55.585Z,15.0
2023-04-23T04:06:55.720Z,14.8
2023-04-23T04:07:55.408Z,14.6
2023-04-23T04:08:55.439Z,14.4
2023-04-23T04:09:55.396Z,16.3
2023-04-23T04:10:55.423Z,15.0
2023-04-23T04:11:55.475Z,15.1
2023-04-23T04:12:55.490Z,14.9
2023-04-23T04:13:55.462Z,15.0
2023-04-23T04:14:55.409Z,14.8
2023-04-23T04:15:55.454Z,15.4
2023-04-23T04:16:55.555Z,15.3
2023-04-23T04:17:55.927Z,13.8
2023-04-23T04:18:56.626Z,14.8
2023-04-23T04:19:55.418Z,15.8
2023-04-23T04:20:55.396Z,14.2
2023-04-23T04:21:55.395Z,15.1
2023-04-23T04:22:57.032Z,14.3
2023-04-23T04:23:55.564Z,14.9
2023-04-23T04:24:55.389Z,13.9
2023-04-23T04:25:55.389Z,15.7
2023-04-23T04:26:55.406Z,14.4
2023-04-23T04:27:55.377Z,14.5
2023-04-23T04:28:55.496Z,14.8
2023-04-23T04:29:55.427Z,14.1
2023-04-23T04:30:55.361Z,14.0
2023-04-23T04:31:55.634Z,13.3
2023-04-23T04:32:55.435Z,15.8
2023-04-23T04:33:55.412Z,15.2
2023-04-23T04:34:55.336Z,15.3
2023-04-23T04:35:55.343Z,15.1
2023-04-23T04:36:55.365Z,14.7
2023-04-23T04:37:55.427Z,14.3
2023-04-23T04:38:55.415Z,14.6
2023-04-23T04:39:55.361Z,15.3
2023-04-23T04:40:55.350Z,15.2
2023-04-23T04:41:55.424Z,14.2
2023-04-23T04:42:55.423Z,13.8
2023-04-23T04:43:55.494Z,13.9
2023-04-23T04:44:55.370Z,15.8
2023-04-23T04:45:55.354Z,14.5
2023-04-23T04:46:55.349Z,16.0
2023-04-23T04:47:55.437Z,15.9
2023-04-23T04:48:55.377Z,14.5
2023-04-23T04:49:56.949Z,14.6
2023-04-23T04:50:55.502Z,13.8
2023-04-23T04:51:55.334Z,14.5
2023-04-23T04:52:55.364Z,15.0
2023-04-23T04:53:55.322Z,15.7
2023-04-23T04:54:55.394Z,16.3
2023-04-23T04:55:55.356Z,16.2
2023-04-23T04:56:55.290Z,15.9
2023-04-23T04:57:55.357Z,15.6
2023-04-23T04:58:55.368Z,17.9
2023-04-23T04:59:55.579Z,20.9
2023-04-23T05:00:55.374Z,16.9
2023-04-23T05:01:55.430Z,17.2
2023-04-23T05:02:55.425Z,16.8
2023-04-23T05:03:55.578Z,16.2
2023-04-23T05:04:55.354Z,16.5
2023-04-23T05:05:55.336Z,17.0
2023-04-23T05:06:55.296Z,16.4
2023-04-23T05:07:55.340Z,16.3
2023-04-23T05:08:55.338Z,17.7
2023-04-23T05:09:55.309Z,17.8
2023-04-23T05:10:55.360Z,19.0
2023-04-23T05:11:55.282Z,18.2
2023-04-23T05:12:55.455Z,18.1
2023-04-23T05:13:55.353Z,18.6
2023-04-23T05:14:56.738Z,18.8
2023-04-23T05:15:55.329Z,17.6
2023-04-23T05:16:55.412Z,18.0
2023-04-23T05:17:55.346Z,17.2
2023-04-23T05:18:55.286Z,17.9
2023-04-23T05:19:55.315Z,18.4
2023-04-23T05:20:55.325Z,18.6
2023-04-23T05:21:55.322Z,18.8
2023-04-23T05:22:55.272Z,17.9
2023-04-23T05:23:55.497Z,18.7
2023-04-23T05:24:55.319Z,20.8
2023-04-23T05:25:55.358Z,22.9
2023-04-23T05:26:55.233Z,22.7
2023-04-23T05:27:55.307Z,21.3
2023-04-23T05:28:55.310Z,21.5
2023-04-23T05:29:55.316Z,21.6
2023-04-23T05:30:55.319Z,19.9
2023-04-23T05:31:55.281Z,18.9
2023-04-23T05:32:55.275Z,19.2
2023-04-23T05:33:55.326Z,17.7
2023-04-23T05:34:55.385Z,18.6
2023-04-23T05:35:55.372Z,17.8
2023-04-23T05:36:55.258Z,18.0
2023-04-23T05:37:55.422Z,17.7
2023-04-23T05:38:55.296Z,17.2
2023-04-23T05:39:55.348Z,17.8
2023-04-23T05:40:55.264Z,17.3
2023-04-23T05:41:55.262Z,17.8
2023-04-23T05:42:55.280Z,17.1
2023-04-23T05:43:57.591Z,17.0
2023-04-23T05:44:55.259Z,17.8
2023-04-23T05:45:55.302Z,17.8
2023-04-23T05:46:55.232Z,17.5
2023-04-23T05:47:55.274Z,17.4
2023-04-23T05:48:55.225Z,16.8
2023-04-23T05:49:55.346Z,17.3
2023-04-23T05:50:55.236Z,17.1
2023-04-23T05:51:55.239Z,17.7
2023-04-23T05:52:55.297Z,16.9
2023-04-23T05:53:55.298Z,17.3
2023-04-23T05:54:55.232Z,18.0
2023-04-23T05:55:55.370Z,17.2
2023-04-23T05:56:55.356Z,17.4
2023-04-23T05:57:55.234Z,17.5
2023-04-23T05:58:55.264Z,17.4
2023-04-23T05:59:55.469Z,16.9
2023-04-23T06:00:56.336Z,18.1
2023-04-23T06:01:55.190Z,17.5
2023-04-23T06:02:55.399Z,17.7
2023-04-23T06:03:55.337Z,17.1
2023-04-23T06:04:55.690Z,17.1
2023-04-23T06:05:55.523Z,17.1
2023-04-23T06:06:55.176Z,16.5
2023-04-23T06:07:55.328Z,17.2
2023-04-23T06:08:55.230Z,18.1
2023-04-23T06:09:55.210Z,17.1
2023-04-23T06:10:56.401Z,17.8
2023-04-23T06:11:55.149Z,16.2
2023-04-23T06:12:55.201Z,16.7
2023-04-23T06:13:55.206Z,16.8
2023-04-23T06:14:55.152Z,17.1
2023-04-23T06:15:55.211Z,18.3
2023-04-23T06:16:55.200Z,17.1
2023-04-23T06:17:55.242Z,16.9
2023-04-23T06:18:55.338Z,16.1
2023-04-23T06:19:55.156Z,17.8
2023-04-23T06:20:55.152Z,16.6
2023-04-23T06:21:55.217Z,16.0
2023-04-23T06:22:55.156Z,15.2
2023-04-23T06:23:55.182Z,16.5
2023-04-23T06:24:55.182Z,15.9
2023-04-23T06:25:55.164Z,15.4
2023-04-23T06:26:55.201Z,15.7
2023-04-23T06:27:55.195Z,14.5
2023-04-23T06:28:55.177Z,15.4
2023-04-23T06:29:55.237Z,16.0
2023-04-23T06:30:55.172Z,14.9
2023-04-23T06:31:55.251Z,14.1
2023-04-23T06:32:55.214Z,14.7
2023-04-23T06:33:55.187Z,14.5
2023-04-23T06:35:01.634Z,14.1
2023-04-23T06:35:55.242Z,13.1
2023-04-23T06:36:55.157Z,12.9
2023-04-23T06:37:55.127Z,13.0
2023-04-23T06:38:55.191Z,14.1
2023-04-23T06:39:55.287Z,13.8
2023-04-23T06:40:55.249Z,13.8
2023-04-23T06:41:55.178Z,11.6
2023-04-23T06:42:55.139Z,12.6
2023-04-23T06:43:55.124Z,11.9
2023-04-23T06:44:55.131Z,13.8
2023-04-23T06:45:55.101Z,12.3
2023-04-23T06:46:55.166Z,11.8
2023-04-23T06:47:55.145Z,12.7
2023-04-23T06:48:55.122Z,13.0
2023-04-23T06:49:55.140Z,12.5
2023-04-23T06:50:55.099Z,12.4
2023-04-23T06:51:57.487Z,11.8
2023-04-23T06:52:55.107Z,11.5
2023-04-23T06:53:55.286Z,11.8
2023-04-23T06:54:55.096Z,12.6
2023-04-23T06:55:55.151Z,11.6
2023-04-23T06:56:55.213Z,12.0
2023-04-23T06:57:55.098Z,11.5
2023-04-23T06:58:55.138Z,11.9
2023-04-23T06:59:55.280Z,11.1
2023-04-23T07:00:55.150Z,11.1
2023-04-23T07:01:55.181Z,10.9
2023-04-23T07:02:55.344Z,11.3
2023-04-23T07:03:55.244Z,9.7
2023-04-23T07:04:55.114Z,10.2
2023-04-23T07:05:55.237Z,10.3
2023-04-23T07:06:55.238Z,10.6
2023-04-23T07:07:55.130Z,10.4
2023-04-23T07:08:55.132Z,10.5
2023-04-23T07:09:55.120Z,10.2
2023-04-23T07:10:55.159Z,9.1
2023-04-23T07:11:55.103Z,9.0
2023-04-23T07:12:55.108Z,9.8
2023-04-23T07:13:55.256Z,9.0
2023-04-23T07:14:55.214Z,9.6
2023-04-23T07:15:55.129Z,9.8
2023-04-23T07:16:55.125Z,10.2
2023-04-23T07:17:55.120Z,9.9
2023-04-23T07:18:55.115Z,9.3
2023-04-23T07:19:55.126Z,9.3
2023-04-23T07:20:55.108Z,9.0
2023-04-23T07:21:55.206Z,8.9
2023-04-23T07:22:55.083Z,9.4
2023-04-23T07:23:55.142Z,9.3
2023-04-23T07:24:55.106Z,8.9
2023-04-23T07:25:55.239Z,8.9
2023-04-23T07:26:55.142Z,8.9
2023-04-23T07:27:55.088Z,8.3
2023-04-23T07:28:55.146Z,7.8
2023-04-23T07:29:55.144Z,8.0
2023-04-23T07:30:55.182Z,8.5
2023-04-23T07:31:55.106Z,8.3
2023-04-23T07:32:55.112Z,8.2
2023-04-23T07:33:55.154Z,8.7
2023-04-23T07:34:55.072Z,8.2
2023-04-23T07:35:55.137Z,8.3
2023-04-23T07:36:55.109Z,8.6
2023-04-23T07:37:55.098Z,7.7
2023-04-23T07:38:55.106Z,8.1
2023-04-23T07:39:55.159Z,8.0
2023-04-23T07:40:55.187Z,8.1
2023-04-23T07:41:55.078Z,7.5
2023-04-23T07:42:55.073Z,7.9
2023-04-23T07:43:55.151Z,7.4
2023-04-23T07:44:55.139Z,8.0
2023-04-23T07:45:55.122Z,7.8
2023-04-23T07:46:55.259Z,7.7
2023-04-23T07:47:55.096Z,7.9
2023-04-23T07:48:55.043Z,7.9
2023-04-23T07:49:55.236Z,7.4
2023-04-23T07:50:55.052Z,7.3
2023-04-23T07:51:55.066Z,7.0
2023-04-23T07:52:55.060Z,6.9
2023-04-23T07:53:55.075Z,7.0
2023-04-23T07:54:55.133Z,7.3
2023-04-23T07:55:55.143Z,7.0
2023-04-23T07:56:55.079Z,7.1
2023-04-23T07:57:55.211Z,6.1
2023-04-23T07:58:55.102Z,6.9
2023-04-23T07:59:55.070Z,7.0
2023-04-23T08:00:55.129Z,6.6
2023-04-23T08:01:55.139Z,7.0
2023-04-23T08:02:55.174Z,6.1
2023-04-23T08:03:56.822Z,6.9
2023-04-23T08:04:55.457Z,6.5
2023-04-23T08:05:55.106Z,6.4
2023-04-23T08:06:55.076Z,6.0
2023-04-23T08:07:55.066Z,6.0
2023-04-23T08:09:05.706Z,5.8
2023-04-23T08:09:55.036Z,6.0
2023-04-23T08:10:55.076Z,6.6
2023-04-23T08:12:02.445Z,6.2
2023-04-23T08:12:55.067Z,6.7
2023-04-23T08:13:55.079Z,6.9
2023-04-23T08:14:55.093Z,5.5
2023-04-23T08:15:55.079Z,5.8
2023-04-23T08:16:55.050Z,6.1
2023-04-23T08:17:55.081Z,5.8
2023-04-23T08:19:04.996Z,5.5
2023-04-23T08:19:54.990Z,6.1
2023-04-23T08:20:55.054Z,5.7
2023-04-23T08:21:55.053Z,5.4
2023-04-23T08:22:55.018Z,5.8
2023-04-23T08:23:55.031Z,5.6
2023-04-23T08:24:55.018Z,5.6
2023-04-23T08:25:55.119Z,5.8
2023-04-23T08:26:55.000Z,5.6
2023-04-23T08:27:54.999Z,5.4
2023-04-23T08:28:55.050Z,5.7
2023-04-23T08:29:55.145Z,5.8
2023-04-23T08:30:55.086Z,5.6
2023-04-23T08:31:55.079Z,5.0
2023-04-23T08:32:55.054Z,5.4
2023-04-23T08:33:54.990Z,4.7
2023-04-23T08:34:55.001Z,4.8
2023-04-23T08:35:55.118Z,5.1
2023-04-23T08:36:55.011Z,5.6
2023-04-23T08:37:54.970Z,4.7
2023-04-23T08:38:55.015Z,4.5
2023-04-23T08:39:54.999Z,4.7
2023-04-23T08:40:55.015Z,5.0
2023-04-23T08:41:55.087Z,4.5
2023-04-23T08:42:55.013Z,5.0
2023-04-23T08:43:55.051Z,5.2
2023-04-23T08:44:54.990Z,3.7
2023-04-23T08:45:54.978Z,4.0
2023-04-23T08:46:55.309Z,4.8
2023-04-23T08:47:55.001Z,4.3
2023-04-23T08:48:55.213Z,4.9
2023-04-23T08:49:54.974Z,5.9
2023-04-23T08:50:55.002Z,4.7
2023-04-23T08:51:55.331Z,4.7
2023-04-23T08:52:54.984Z,4.7
2023-04-23T08:53:55.032Z,4.6
2023-04-23T08:54:55.039Z,4.3
2023-04-23T08:55:55.055Z,4.9
2023-04-23T08:56:55.309Z,4.9
2023-04-23T08:57:55.414Z,3.9
2023-04-23T08:58:56.986Z,4.2
2023-04-23T08:59:55.744Z,4.0
2023-04-23T09:00:55.000Z,3.6
2023-04-23T09:01:55.028Z,3.8
2023-04-23T09:02:55.311Z,3.4
2023-04-23T09:03:55.185Z,3.7
2023-04-23T09:04:56.318Z,3.9
2023-04-23T09:05:55.008Z,4.1
2023-04-23T09:06:54.997Z,4.0
2023-04-23T09:07:54.990Z,3.7
2023-04-23T09:08:54.967Z,4.0
2023-04-23T09:09:55.073Z,3.6
2023-04-23T09:10:54.937Z,3.3
2023-04-23T09:11:55.147Z,3.4
2023-04-23T09:12:54.949Z,4.1
2023-04-23T09:13:55.161Z,3.3
2023-04-23T09:14:55.012Z,3.7
2023-04-23T09:15:54.954Z,3.9
2023-04-23T09:16:54.997Z,3.9
2023-04-23T09:17:55.046Z,5.1
2023-04-23T09:18:54.959Z,4.6
2023-04-23T09:19:55.109Z,4.8
2023-04-23T09:20:54.949Z,4.6
2023-04-23T09:21:54.962Z,4.3
2023-04-23T09:22:54.938Z,4.0
2023-04-23T09:23:54.992Z,4.3
2023-04-23T09:24:55.031Z,4.6
2023-04-23T09:25:55.074Z,3.8
2023-04-23T09:26:54.937Z,4.2
2023-04-23T09:27:54.940Z,4.1
2023-04-23T09:28:54.913Z,3.9
2023-04-23T09:29:54.950Z,3.9
2023-04-23T09:30:55.023Z,4.0
2023-04-23T09:31:54.940Z,4.1
2023-04-23T09:32:55.249Z,3.9
2023-04-23T09:33:54.934Z,4.0
2023-04-23T09:35:01.930Z,4.2
2023-04-23T09:35:55.134Z,4.1
2023-04-23T09:36:55.013Z,3.7
2023-04-23T09:37:54.942Z,4.2
2023-04-23T09:38:54.939Z,4.4
2023-04-23T09:39:54.935Z,3.8
2023-04-23T09:40:54.924Z,4.1
2023-04-23T09:41:54.994Z,3.7
2023-04-23T09:42:55.236Z,3.8
2023-04-23T09:43:54.904Z,4.1
2023-04-23T09:44:54.960Z,4.0
2023-04-23T09:45:54.894Z,4.0
2023-04-23T09:46:54.932Z,3.7
2023-04-23T09:47:55.068Z,3.6
2023-04-23T09:48:54.965Z,3.9
2023-04-23T09:49:54.913Z,3.7
2023-04-23T09:50:54.940Z,3.9
2023-04-23T09:51:54.930Z,4.1
2023-04-23T09:52:55.001Z,4.4
2023-04-23T09:53:54.994Z,4.5
2023-04-23T09:54:54.913Z,4.4
2023-04-23T09:55:54.907Z,4.3
2023-04-23T09:56:54.894Z,4.3
2023-04-23T09:57:54.936Z,4.2
2023-04-23T09:58:54.978Z,4.6
2023-04-23T10:00:54.969Z,3.6
2023-04-23T10:01:54.896Z,3.8
2023-04-23T10:02:55.001Z,3.9
2023-04-23T10:03:55.056Z,4.2
2023-04-23T10:05:03.705Z,3.7
2023-04-23T10:06:01.223Z,4.1
2023-04-23T10:07:07.550Z,3.6
2023-04-23T10:07:54.910Z,3.6
2023-04-23T10:08:55.169Z,3.3
2023-04-23T10:09:54.879Z,3.3
2023-04-23T10:11:03.162Z,2.9
2023-04-23T10:11:54.957Z,3.4
2023-04-23T10:12:55.753Z,3.0
2023-04-23T10:13:54.962Z,3.2
2023-04-23T10:14:54.903Z,3.4
2023-04-23T10:15:55.075Z,3.5
2023-04-23T10:16:54.917Z,3.3
2023-04-23T10:17:54.864Z,3.9
2023-04-23T10:18:55.063Z,3.2
2023-04-23T10:19:55.078Z,3.1
2023-04-23T10:20:54.871Z,3.3
2023-04-23T10:21:59.880Z,3.7
2023-04-23T10:22:54.894Z,3.1
2023-04-23T10:23:54.883Z,3.3
2023-04-23T10:24:54.937Z,3.8
2023-04-23T10:25:54.909Z,4.0
2023-04-23T10:26:54.856Z,3.3
2023-04-23T10:27:54.939Z,2.8
2023-04-23T10:28:54.980Z,3.4
2023-04-23T10:29:54.842Z,3.3
2023-04-23T10:30:54.982Z,3.1
2023-04-23T10:31:59.278Z,3.4
2023-04-23T10:32:54.986Z,3.2
2023-04-23T10:33:58.485Z,3.2
2023-04-23T10:34:57.286Z,2.8
2023-04-23T10:35:54.865Z,3.1
2023-04-23T10:36:54.962Z,3.3
2023-04-23T10:37:54.869Z,3.1
2023-04-23T10:38:58.892Z,3.4
2023-04-23T10:39:56.097Z,3.1
2023-04-23T10:40:54.971Z,2.7
2023-04-23T10:41:54.909Z,2.7
2023-04-23T10:42:54.875Z,3.0
2023-04-23T10:43:54.876Z,2.9
2023-04-23T10:44:59.582Z,3.3
2023-04-23T10:45:54.857Z,2.7
2023-04-23T10:46:59.505Z,2.8
2023-04-23T10:47:54.908Z,2.6
2023-04-23T10:48:54.823Z,2.7
2023-04-23T10:49:54.838Z,2.5
2023-04-23T10:51:09.626Z,3.0
2023-04-23T10:52:55.113Z,2.9
2023-04-23T10:53:54.852Z,2.9
2023-04-23T10:54:54.880Z,2.6
2023-04-23T10:55:54.810Z,2.6
2023-04-23T10:56:54.806Z,2.8
2023-04-23T10:57:54.909Z,2.4
2023-04-23T10:58:54.849Z,2.7
2023-04-23T10:59:55.013Z,2.7
2023-04-23T11:00:54.833Z,2.7
2023-04-23T11:01:54.963Z,2.7
2023-04-23T11:02:54.967Z,2.8
2023-04-23T11:04:05.543Z,2.4
2023-04-23T11:04:54.950Z,3.1
2023-04-23T11:05:54.842Z,2.7
2023-04-23T11:07:03.289Z,3.2
2023-04-23T11:07:54.851Z,2.7
2023-04-23T11:08:55.257Z,2.7
2023-04-23T11:09:54.840Z,2.7
2023-04-23T11:10:54.836Z,2.8
2023-04-23T11:11:54.859Z,3.2
2023-04-23T11:13:54.920Z,2.5
2023-04-23T11:14:54.956Z,3.1
2023-04-23T11:15:54.818Z,2.5
2023-04-23T11:16:54.979Z,2.8
2023-04-23T11:17:54.846Z,2.1
2023-04-23T11:18:54.871Z,2.4
2023-04-23T11:19:54.851Z,3.4
2023-04-23T11:20:54.823Z,2.5
2023-04-23T11:21:54.921Z,2.8
2023-04-23T11:22:54.828Z,2.7
2023-04-23T11:23:54.854Z,2.7
2023-04-23T11:24:54.995Z,2.3
2023-04-23T11:25:54.813Z,2.6
2023-04-23T11:26:54.859Z,2.4
2023-04-23T11:27:54.742Z,2.4
2023-04-23T11:28:54.776Z,2.7
2023-04-23T11:29:54.829Z,2.2
2023-04-23T11:30:54.774Z,2.2
2023-04-23T11:32:02.606Z,2.7
2023-04-23T11:32:54.976Z,2.0
2023-04-23T11:33:54.819Z,2.4
2023-04-23T11:34:54.822Z,2.2
2023-04-23T11:35:54.952Z,2.5
2023-04-23T11:36:54.943Z,2.5
2023-04-23T11:37:54.859Z,2.6
2023-04-23T11:41:54.941Z,2.6
2023-04-23T11:42:55.140Z,2.2
2023-04-23T11:43:54.808Z,2.5
2023-04-23T11:44:54.815Z,2.4
2023-04-23T11:45:54.911Z,2.4
2023-04-23T11:46:57.065Z,2.5
2023-04-23T11:47:54.790Z,2.2
2023-04-23T11:48:54.750Z,2.8
2023-04-23T11:49:54.764Z,2.3
2023-04-23T11:50:54.850Z,2.2
2023-04-23T11:51:54.781Z,2.4
2023-04-23T11:52:54.837Z,2.2
2023-04-23T11:53:54.845Z,2.2
2023-04-23T11:54:54.819Z,2.3
2023-04-23T11:55:54.878Z,2.4
2023-04-23T11:56:54.810Z,2.3
2023-04-23T11:57:54.982Z,2.2
2023-04-23T11:58:54.831Z,2.2
2023-04-23T11:59:54.795Z,2.0
2023-04-23T12:00:54.771Z,2.6
2023-04-23T12:01:54.853Z,2.6
2023-04-23T12:02:54.940Z,2.5
2023-04-23T12:03:54.952Z,2.4
2023-04-23T12:04:54.785Z,2.7
2023-04-23T12:05:54.879Z,2.2
2023-04-23T12:06:54.848Z,2.3
2023-04-23T12:07:54.806Z,2.5
2023-04-23T12:11:54.764Z,2.5
2023-04-23T12:12:54.827Z,2.1
2023-04-23T12:13:54.781Z,2.1
2023-04-23T12:14:54.758Z,2.2
2023-04-23T12:15:54.820Z,2.2
2023-04-23T12:16:54.780Z,2.3
2023-04-23T12:17:54.849Z,2.6
2023-04-23T12:18:54.783Z,2.5
2023-04-23T12:19:54.743Z,2.7
2023-04-23T12:20:54.778Z,2.6
2023-04-23T12:21:54.901Z,2.4
2023-04-23T12:22:54.812Z,2.1
2023-04-23T12:23:54.856Z,2.3
2023-04-23T12:24:54.760Z,2.3
2023-04-23T12:25:54.804Z,2.2
2023-04-23T12:26:58.483Z,2.5
2023-04-23T12:28:54.767Z,2.4
2023-04-23T12:29:54.844Z,2.8
2023-04-23T12:30:55.032Z,2.5
2023-04-23T12:31:54.843Z,8.6
2023-04-23T12:32:54.773Z,12.1
2023-04-23T12:33:54.762Z,7.6
2023-04-23T12:34:54.803Z,4.7
2023-04-23T12:35:54.853Z,2.5
2023-04-23T12:36:54.809Z,2.3
2023-04-23T12:37:54.715Z,2.5
2023-04-23T12:38:54.776Z,2.4
2023-04-23T12:39:54.760Z,2.6
2023-04-23T12:40:54.792Z,2.7
2023-04-23T12:41:54.722Z,2.7
2023-04-23T12:42:54.754Z,2.6
2023-04-23T12:43:55.042Z,2.9
2023-04-23T12:44:54.811Z,3.2
2023-04-23T12:45:54.788Z,2.9
2023-04-23T12:46:57.221Z,3.2
2023-04-23T12:47:54.827Z,3.3
2023-04-23T12:48:54.775Z,2.6
2023-04-23T12:49:54.723Z,2.6
2023-04-23T12:50:54.740Z,2.6
2023-04-23T12:51:54.805Z,2.6
2023-04-23T12:52:54.703Z,2.5
2023-04-23T12:53:54.765Z,2.5
2023-04-23T12:54:54.880Z,2.5
2023-04-23T12:55:55.616Z,2.6
2023-04-23T12:56:54.785Z,2.7
2023-04-23T12:57:54.727Z,2.7
2023-04-23T12:58:54.747Z,2.5
2023-04-23T12:59:54.735Z,2.2
2023-04-23T13:00:54.768Z,2.8
2023-04-23T13:01:54.808Z,2.8
2023-04-23T13:02:54.860Z,2.9
2023-04-23T13:03:54.898Z,3.2
2023-04-23T13:04:54.683Z,3.2
2023-04-23T13:05:54.718Z,2.7
2023-04-23T13:06:54.749Z,2.9
2023-04-23T13:07:54.729Z,2.8
2023-04-23T13:08:54.691Z,2.8
2023-04-23T13:09:54.725Z,2.8
2023-04-23T13:10:54.673Z,2.4
2023-04-23T13:11:54.782Z,2.7
2023-04-23T13:12:54.752Z,2.6
2023-04-23T13:13:54.695Z,2.4
2023-04-23T13:14:54.700Z,2.8
2023-04-23T13:15:54.761Z,2.6
2023-04-23T13:16:55.056Z,2.9
2023-04-23T13:17:54.917Z,3.2
2023-04-23T13:18:54.758Z,2.7
2023-04-23T13:19:54.657Z,3.3
2023-04-23T13:20:54.724Z,2.8
2023-04-23T13:21:54.722Z,2.7
2023-04-23T13:22:54.719Z,3.1
2023-04-23T13:23:57.597Z,2.7
2023-04-23T13:24:54.916Z,3.0
2023-04-23T13:25:54.936Z,2.8
2023-04-23T13:26:54.968Z,2.8
2023-04-23T13:27:54.682Z,2.9
2023-04-23T13:28:54.709Z,2.9
2023-04-23T13:29:54.679Z,2.7
2023-04-23T13:30:54.699Z,2.5
2023-04-23T13:31:54.893Z,3.2
2023-04-23T13:32:54.684Z,3.1
2023-04-23T13:33:54.725Z,3.1
2023-04-23T13:34:54.659Z,2.7
2023-04-23T13:35:54.652Z,3.2
2023-04-23T13:36:59.159Z,3.5
2023-04-23T13:37:54.651Z,2.8
2023-04-23T13:38:54.924Z,3.0
2023-04-23T13:39:54.664Z,3.0
2023-04-23T13:40:54.633Z,2.9
2023-04-23T13:42:54.713Z,3.1
2023-04-23T13:43:54.633Z,2.9